sensor_id;sensor_type;location;lat;lon;timestamp;pressure;altitude;pressure_sealevel;temperature;humidity
10718;BME280;13513;42.700;23.124;2023-04-24T00:01:04;92663.25;;;11.61;85.23
10718;BME280;13513;42.700;23.124;2023-04-24T00:03:36;92665.22;;;11.36;87.42
10718;BME280;13513;42.700;23.124;2023-04-24T00:06:07;92672.70;;;11.47;86.98
10718;BME280;13513;42.700;23.124;2023-04-24T00:08:37;92665.60;;;11.57;86.35
10718;BME280;13513;42.700;23.124;2023-04-24T00:11:11;92666.05;;;11.44;84.97
10718;BME280;13513;42.700;23.124;2023-04-24T00:13:41;92666.78;;;11.32;84.92
10718;BME280;13513;42.700;23.124;2023-04-24T00:16:12;92664.61;;;11.19;86.16
10718;BME280;13513;42.700;23.124;2023-04-24T00:18:43;92666.52;;;10.87;89.39
10718;BME280;13513;42.700;23.124;2023-04-24T00:21:14;92666.73;;;11.20;89.85
10718;BME280;13513;42.700;23.124;2023-04-24T00:23:45;92676.02;;;11.27;88.32
10718;BME280;13513;42.700;23.124;2023-04-24T00:26:16;92672.03;;;11.20;88.25
10718;BME280;13513;42.700;23.124;2023-04-24T00:28:47;92667.86;;;11.34;87.99
10718;BME280;13513;42.700;23.124;2023-04-24T00:31:18;92661.56;;;11.45;88.60
10718;BME280;13513;42.700;23.124;2023-04-24T00:33:49;92665.61;;;11.60;88.08
10718;BME280;13513;42.700;23.124;2023-04-24T00:36:20;92674.16;;;11.74;86.67
10718;BME280;13513;42.700;23.124;2023-04-24T00:38:52;92668.09;;;11.76;87.52
10718;BME280;13513;42.700;23.124;2023-04-24T00:41:22;92656.13;;;11.66;87.57
10718;BME280;13513;42.700;23.124;2023-04-24T00:43:54;92658.31;;;11.79;87.15
10718;BME280;13513;42.700;23.124;2023-04-24T00:46:24;92656.20;;;11.86;87.09
10718;BME280;13513;42.700;23.124;2023-04-24T00:48:57;92646.12;;;11.78;89.36
10718;BME280;13513;42.700;23.124;2023-04-24T00:51:28;92652.41;;;11.62;91.78
10718;BME280;13513;42.700;23.124;2023-04-24T00:54:00;92638.57;;;11.48;95.41
10718;BME280;13513;42.700;23.124;2023-04-24T00:56:30;92636.13;;;11.39;97.42
10718;BME280;13513;42.700;23.124;2023-04-24T00:59:08;92632.47;;;11.47;98.10
10718;BME280;13513;42.700;23.124;2023-04-24T01:01:39;92620.50;;;11.32;99.45
10718;BME280;13513;42.700;23.124;2023-04-24T01:04:11;92626.84;;;11.26;100.00
10718;BME280;13513;42.700;23.124;2023-04-24T01:06:43;92616.77;;;11.23;100.00
10718;BME280;13513;42.700;23.124;2023-04-24T01:09:14;92610.66;;;11.20;100.00
10718;BME280;13513;42.700;23.124;2023-04-24T01:11:46;92608.03;;;11.25;100.00
10718;BME280;13513;42.700;23.124;2023-04-24T01:14:17;92605.34;;;11.13;100.00
10718;BME280;13513;42.700;23.124;2023-04-24T01:16:48;92614.03;;;11.06;100.00
10718;BME280;13513;42.700;23.124;2023-04-24T01:19:18;92607.67;;;11.04;100.00
10718;BME280;13513;42.700;23.124;2023-04-24T01:21:50;92598.99;;;11.11;100.00
10718;BME280;13513;42.700;23.124;2023-04-24T01:24:21;92592.08;;;11.08;100.00
10718;BME280;13513;42.700;23.124;2023-04-24T01:26:52;92592.40;;;11.16;100.00
10718;BME280;13513;42.700;23.124;2023-04-24T01:29:24;92584.44;;;11.06;100.00
10718;BME280;13513;42.700;23.124;2023-04-24T01:31:56;92587.82;;;10.97;100.00
10718;BME280;13513;42.700;23.124;2023-04-24T01:34:26;92586.02;;;11.05;100.00
10718;BME280;13513;42.700;23.124;2023-04-24T01:36:58;92578.83;;;10.95;100.00
10718;BME280;13513;42.700;23.124;2023-04-24T01:39:29;92592.05;;;10.98;99.37
10718;BME280;13513;42.700;23.124;2023-04-24T01:41:58;92593.70;;;11.11;98.10
10718;BME280;13513;42.700;23.124;2023-04-24T01:44:30;92606.42;;;11.14;97.29
10718;BME280;13513;42.700;23.124;2023-04-24T01:47:01;92610.40;;;11.19;94.38
10718;BME280;13513;42.700;23.124;2023-04-24T01:49:32;92608.07;;;11.28;93.15
10718;BME280;13513;42.700;23.124;2023-04-24T01:52:04;92612.61;;;11.40;91.63
10718;BME280;13513;42.700;23.124;2023-04-24T01:54:34;92622.71;;;11.55;90.27
10718;BME280;13513;42.700;23.124;2023-04-24T01:57:06;92630.66;;;11.58;89.92
10718;BME280;13513;42.700;23.124;2023-04-24T01:59:36;92626.52;;;11.69;87.39
10718;BME280;13513;42.700;23.124;2023-04-24T02:02:07;92624.98;;;11.86;86.38
10718;BME280;13513;42.700;23.124;2023-04-24T02:04:39;92631.05;;;11.81;87.57
10718;BME280;13513;42.700;23.124;2023-04-24T02:07:12;92617.77;;;11.66;87.99
10718;BME280;13513;42.700;23.124;2023-04-24T02:09:46;92617.77;;;11.71;88.68
10718;BME280;13513;42.700;23.124;2023-04-24T02:12:16;92618.27;;;11.61;89.85
10718;BME280;13513;42.700;23.124;2023-04-24T02:14:46;92619.09;;;11.71;90.15
10718;BME280;13513;42.700;23.124;2023-04-24T02:17:16;92613.53;;;11.63;90.21
10718;BME280;13513;42.700;23.124;2023-04-24T02:19:47;92615.53;;;11.46;88.68
10718;BME280;13513;42.700;23.124;2023-04-24T02:22:18;92613.55;;;11.14;90.22
10718;BME280;13513;42.700;23.124;2023-04-24T02:24:48;92610.97;;;10.82;92.92
10718;BME280;13513;42.700;23.124;2023-04-24T02:27:19;92603.22;;;10.66;91.03
10718;BME280;13513;42.700;23.124;2023-04-24T02:29:52;92602.32;;;10.53;93.42
10718;BME280;13513;42.700;23.124;2023-04-24T02:32:24;92599.03;;;10.36;94.32
10718;BME280;13513;42.700;23.124;2023-04-24T02:34:55;92593.69;;;10.31;93.82
10718;BME280;13513;42.700;23.124;2023-04-24T02:37:26;92582.95;;;10.08;92.70
10718;BME280;13513;42.700;23.124;2023-04-24T02:39:57;92589.61;;;9.89;91.94
10718;BME280;13513;42.700;23.124;2023-04-24T02:42:28;92592.44;;;9.80;92.35
10718;BME280;13513;42.700;23.124;2023-04-24T02:45:01;92583.97;;;9.78;93.35
10718;BME280;13513;42.700;23.124;2023-04-24T02:47:31;92591.08;;;9.75;94.47
10718;BME280;13513;42.700;23.124;2023-04-24T02:50:02;92593.41;;;9.72;93.78
10718;BME280;13513;42.700;23.124;2023-04-24T02:52:33;92591.08;;;9.75;94.34
10718;BME280;13513;42.700;23.124;2023-04-24T02:55:03;92594.70;;;9.69;96.65
10718;BME280;13513;42.700;23.124;2023-04-24T02:57:35;92590.03;;;9.76;97.75
10718;BME280;13513;42.700;23.124;2023-04-24T03:00:09;92590.92;;;9.60;98.21
10718;BME280;13513;42.700;23.124;2023-04-24T03:02:40;92587.72;;;9.58;96.88
10718;BME280;13513;42.700;23.124;2023-04-24T03:05:11;92588.73;;;9.52;97.27
10718;BME280;13513;42.700;23.124;2023-04-24T03:07:42;92594.83;;;9.34;97.26
10718;BME280;13513;42.700;23.124;2023-04-24T03:10:15;92600.56;;;9.07;98.84
10718;BME280;13513;42.700;23.124;2023-04-24T03:12:46;92598.14;;;9.03;96.52
10718;BME280;13513;42.700;23.124;2023-04-24T03:15:19;92596.05;;;9.02;97.03
10718;BME280;13513;42.700;23.124;2023-04-24T03:17:50;92596.64;;;9.09;96.67
10718;BME280;13513;42.700;23.124;2023-04-24T03:20:22;92601.77;;;8.97;97.06
10718;BME280;13513;42.700;23.124;2023-04-24T03:22:53;92593.57;;;9.17;100.00
10718;BME280;13513;42.700;23.124;2023-04-24T03:25:22;92588.14;;;9.48;97.33
10718;BME280;13513;42.700;23.124;2023-04-24T03:27:53;92587.92;;;9.52;94.83
10718;BME280;13513;42.700;23.124;2023-04-24T03:30:24;92583.11;;;9.46;96.64
10718;BME280;13513;42.700;23.124;2023-04-24T03:32:54;92586.73;;;9.40;95.32
10718;BME280;13513;42.700;23.124;2023-04-24T03:35:25;92589.92;;;9.42;96.04
10718;BME280;13513;42.700;23.124;2023-04-24T03:37:55;92592.16;;;9.55;95.08
10718;BME280;13513;42.700;23.124;2023-04-24T03:40:25;92590.53;;;9.49;96.13
10718;BME280;13513;42.700;23.124;2023-04-24T03:42:57;92586.45;;;9.63;95.67
10718;BME280;13513;42.700;23.124;2023-04-24T03:45:29;92585.51;;;9.74;94.52
10718;BME280;13513;42.700;23.124;2023-04-24T03:48:00;92588.70;;;9.76;93.05
10718;BME280;13513;42.700;23.124;2023-04-24T03:50:31;92576.91;;;9.57;96.08
10718;BME280;13513;42.700;23.124;2023-04-24T03:53:02;92578.53;;;9.87;100.00
10718;BME280;13513;42.700;23.124;2023-04-24T03:55:32;92572.51;;;10.21;100.00
10718;BME280;13513;42.700;23.124;2023-04-24T03:58:03;92579.12;;;10.57;99.23
10718;BME280;13513;42.700;23.124;2023-04-24T04:00:34;92578.19;;;10.81;97.44
10718;BME280;13513;42.700;23.124;2023-04-24T04:03:05;92576.11;;;10.85;97.12
10718;BME280;13513;42.700;23.124;2023-04-24T04:05:37;92572.22;;;10.95;96.48
10718;BME280;13513;42.700;23.124;2023-04-24T04:08:09;92571.75;;;11.13;95.79
10718;BME280;13513;42.700;23.124;2023-04-24T04:10:40;92563.92;;;11.33;94.72
10718;BME280;13513;42.700;23.124;2023-04-24T04:13:10;92575.03;;;11.40;93.80
10718;BME280;13513;42.700;23.124;2023-04-24T04:15:42;92559.98;;;11.46;93.92
10718;BME280;13513;42.700;23.124;2023-04-24T04:18:13;92572.13;;;11.34;95.48
10718;BME280;13513;42.700;23.124;2023-04-24T04:20:44;92588.77;;;11.35;93.21
10718;BME280;13513;42.700;23.124;2023-04-24T04:23:15;92581.58;;;11.23;94.11
10718;BME280;13513;42.700;23.124;2023-04-24T04:25:46;92586.36;;;11.26;95.45
10718;BME280;13513;42.700;23.124;2023-04-24T04:28:17;92583.20;;;11.26;97.17
10718;BME280;13513;42.700;23.124;2023-04-24T04:30:48;92587.98;;;11.29;97.18
10718;BME280;13513;42.700;23.124;2023-04-24T04:33:20;92585.86;;;11.34;96.22
10718;BME280;13513;42.700;23.124;2023-04-24T04:35:51;92593.05;;;11.43;95.71
10718;BME280;13513;42.700;23.124;2023-04-24T04:38:23;92592.80;;;11.52;94.21
10718;BME280;13513;42.700;23.124;2023-04-24T04:40:52;92602.94;;;11.60;94.31
10718;BME280;13513;42.700;23.124;2023-04-24T04:43:26;92601.08;;;11.63;93.29
10718;BME280;13513;42.700;23.124;2023-04-24T04:45:57;92601.08;;;11.66;93.71
10718;BME280;13513;42.700;23.124;2023-04-24T04:48:28;92600.82;;;11.67;92.99
10718;BME280;13513;42.700;23.124;2023-04-24T04:50:59;92611.44;;;11.70;93.79
10718;BME280;13513;42.700;23.124;2023-04-24T04:53:30;92609.09;;;11.88;88.96
10718;BME280;13513;42.700;23.124;2023-04-24T04:56:00;92613.83;;;11.74;86.95
10718;BME280;13513;42.700;23.124;2023-04-24T04:58:31;92625.49;;;11.80;89.66
10718;BME280;13513;42.700;23.124;2023-04-24T05:01:02;92614.91;;;11.83;90.27
10718;BME280;13513;42.700;23.124;2023-04-24T05:03:33;92616.27;;;11.95;88.65
10718;BME280;13513;42.700;23.124;2023-04-24T05:06:04;92628.55;;;11.55;83.91
10718;BME280;13513;42.700;23.124;2023-04-24T05:08:34;92623.14;;;11.30;85.72
10718;BME280;13513;42.700;23.124;2023-04-24T05:11:05;92623.20;;;11.40;83.96
10718;BME280;13513;42.700;23.124;2023-04-24T05:13:37;92632.47;;;11.47;84.41
10718;BME280;13513;42.700;23.124;2023-04-24T05:16:08;92629.75;;;11.32;82.33
10718;BME280;13513;42.700;23.124;2023-04-24T05:18:39;92627.36;;;11.28;83.80
10718;BME280;13513;42.700;23.124;2023-04-24T05:21:10;92630.90;;;11.49;80.85
10718;BME280;13513;42.700;23.124;2023-04-24T05:23:41;92628.34;;;11.64;79.94
10718;BME280;13513;42.700;23.124;2023-04-24T05:26:12;92624.98;;;11.96;77.74
10718;BME280;13513;42.700;23.124;2023-04-24T05:28:45;92614.70;;;12.29;75.76
10718;BME280;13513;42.700;23.124;2023-04-24T05:31:15;92622.13;;;12.85;70.63
10718;BME280;13513;42.700;23.124;2023-04-24T05:33:46;92621.84;;;13.27;69.82
10718;BME280;13513;42.700;23.124;2023-04-24T05:36:18;92620.12;;;13.58;67.54
10718;BME280;13513;42.700;23.124;2023-04-24T05:38:48;92620.73;;;14.04;66.61
10718;BME280;13513;42.700;23.124;2023-04-24T05:41:19;92626.09;;;14.42;62.10
10718;BME280;13513;42.700;23.124;2023-04-24T05:43:50;92616.94;;;14.92;59.76
10718;BME280;13513;42.700;23.124;2023-04-24T05:46:21;92621.59;;;15.36;58.79
10718;BME280;13513;42.700;23.124;2023-04-24T05:48:52;92619.62;;;15.70;54.82
10718;BME280;13513;42.700;23.124;2023-04-24T05:51:23;92627.19;;;15.60;54.82
10718;BME280;13513;42.700;23.124;2023-04-24T05:53:54;92622.36;;;15.86;54.33
10718;BME280;13513;42.700;23.124;2023-04-24T05:56:24;92621.60;;;16.44;54.50
10718;BME280;13513;42.700;23.124;2023-04-24T05:58:54;92611.05;;;16.71;50.85
10718;BME280;13513;42.700;23.124;2023-04-24T06:01:25;92600.75;;;16.64;52.88
10718;BME280;13513;42.700;23.124;2023-04-24T06:03:55;92606.14;;;16.22;53.63
10718;BME280;13513;42.700;23.124;2023-04-24T06:06:26;92609.17;;;16.16;53.65
10718;BME280;13513;42.700;23.124;2023-04-24T06:08:57;92607.87;;;16.32;54.50
10718;BME280;13513;42.700;23.124;2023-04-24T06:11:28;92607.75;;;16.02;53.78
10718;BME280;13513;42.700;23.124;2023-04-24T06:13:59;92601.73;;;16.15;53.37
10718;BME280;13513;42.700;23.124;2023-04-24T06:16:31;92611.33;;;16.88;53.43
10718;BME280;13513;42.700;23.124;2023-04-24T06:19:01;92611.30;;;17.65;52.64
10718;BME280;13513;42.700;23.124;2023-04-24T06:21:32;92616.32;;;18.21;49.37
10718;BME280;13513;42.700;23.124;2023-04-24T06:24:03;92619.23;;;18.11;48.02
10718;BME280;13513;42.700;23.124;2023-04-24T06:26:34;92618.47;;;18.35;48.31
10718;BME280;13513;42.700;23.124;2023-04-24T06:29:05;92614.91;;;18.39;48.63
10718;BME280;13513;42.700;23.124;2023-04-24T06:31:39;92615.41;;;18.01;52.06
10718;BME280;13513;42.700;23.124;2023-04-24T06:34:09;92616.05;;;17.68;49.83
10718;BME280;13513;42.700;23.124;2023-04-24T06:36:41;92617.20;;;17.03;51.22
10718;BME280;13513;42.700;23.124;2023-04-24T06:39:11;92611.80;;;17.38;51.53
10718;BME280;13513;42.700;23.124;2023-04-24T06:41:43;92615.14;;;16.66;54.99
10718;BME280;13513;42.700;23.124;2023-04-24T06:44:14;92618.03;;;16.51;56.20
10718;BME280;13513;42.700;23.124;2023-04-24T06:46:46;92616.61;;;15.76;60.37
10718;BME280;13513;42.700;23.124;2023-04-24T06:49:17;92607.77;;;16.76;56.28
10718;BME280;13513;42.700;23.124;2023-04-24T06:51:47;92618.87;;;16.99;54.50
10718;BME280;13513;42.700;23.124;2023-04-24T06:54:18;92614.21;;;17.23;53.30
10718;BME280;13513;42.700;23.124;2023-04-24T06:56:49;92612.20;;;17.31;53.25
10718;BME280;13513;42.700;23.124;2023-04-24T06:59:20;92611.98;;;18.49;49.91
10718;BME280;13513;42.700;23.124;2023-04-24T07:01:51;92604.07;;;18.80;50.65
10718;BME280;13513;42.700;23.124;2023-04-24T07:04:21;92609.16;;;18.90;48.76
10718;BME280;13513;42.700;23.124;2023-04-24T07:06:52;92602.42;;;18.70;48.91
10718;BME280;13513;42.700;23.124;2023-04-24T07:09:24;92604.23;;;18.72;48.34
10718;BME280;13513;42.700;23.124;2023-04-24T07:11:54;92614.72;;;17.95;51.00
10718;BME280;13513;42.700;23.124;2023-04-24T07:14:25;92607.91;;;17.76;51.47
10718;BME280;13513;42.700;23.124;2023-04-24T07:16:56;92599.53;;;17.93;50.99
10718;BME280;13513;42.700;23.124;2023-04-24T07:19:27;92598.05;;;18.39;50.25
10718;BME280;13513;42.700;23.124;2023-04-24T07:21:57;92597.32;;;19.04;49.63
10718;BME280;13513;42.700;23.124;2023-04-24T07:24:28;92597.21;;;19.90;46.16
10718;BME280;13513;42.700;23.124;2023-04-24T07:27:00;92594.22;;;20.56;45.36
10718;BME280;13513;42.700;23.124;2023-04-24T07:29:31;92588.98;;;20.96;43.63
10718;BME280;13513;42.700;23.124;2023-04-24T07:32:02;92582.89;;;20.93;42.30
10718;BME280;13513;42.700;23.124;2023-04-24T07:34:33;92585.09;;;21.08;42.76
10718;BME280;13513;42.700;23.124;2023-04-24T07:37:04;92585.91;;;21.63;42.79
10718;BME280;13513;42.700;23.124;2023-04-24T07:39:35;92583.92;;;21.03;42.60
10718;BME280;13513;42.700;23.124;2023-04-24T07:42:06;92590.92;;;19.95;44.52
10718;BME280;13513;42.700;23.124;2023-04-24T07:44:37;92590.47;;;20.01;45.02
10718;BME280;13513;42.700;23.124;2023-04-24T07:47:07;92588.28;;;19.84;46.38
10718;BME280;13513;42.700;23.124;2023-04-24T07:49:38;92587.59;;;19.89;45.60
10718;BME280;13513;42.700;23.124;2023-04-24T07:52:08;92591.88;;;19.79;44.83
10718;BME280;13513;42.700;23.124;2023-04-24T07:54:40;92582.33;;;20.15;45.05
10718;BME280;13513;42.700;23.124;2023-04-24T07:57:10;92587.02;;;20.99;42.75
10718;BME280;13513;42.700;23.124;2023-04-24T07:59:41;92584.55;;;21.09;42.87
10718;BME280;13513;42.700;23.124;2023-04-24T08:02:11;92580.83;;;21.70;41.92
10718;BME280;13513;42.700;23.124;2023-04-24T08:04:41;92580.98;;;21.97;41.20
10718;BME280;13513;42.700;23.124;2023-04-24T08:07:12;92575.72;;;22.23;40.75
10718;BME280;13513;42.700;23.124;2023-04-24T08:09:43;92569.30;;;22.86;39.84
10718;BME280;13513;42.700;23.124;2023-04-24T08:12:15;92572.88;;;23.82;39.59
10718;BME280;13513;42.700;23.124;2023-04-24T08:14:44;92569.31;;;24.68;39.00
10718;BME280;13513;42.700;23.124;2023-04-24T08:17:14;92560.09;;;25.63;35.35
10718;BME280;13513;42.700;23.124;2023-04-24T08:19:50;92563.44;;;25.17;34.06
10718;BME280;13513;42.700;23.124;2023-04-24T08:22:21;92575.74;;;24.03;36.15
10718;BME280;13513;42.700;23.124;2023-04-24T08:24:52;92567.63;;;23.20;38.60
10718;BME280;13513;42.700;23.124;2023-04-24T08:27:23;92570.44;;;21.83;38.22
10718;BME280;13513;42.700;23.124;2023-04-24T08:29:54;92560.89;;;22.67;39.00
10718;BME280;13513;42.700;23.124;2023-04-24T08:32:25;92547.35;;;22.26;38.29
10718;BME280;13513;42.700;23.124;2023-04-24T08:34:59;92560.00;;;22.05;40.13
10718;BME280;13513;42.700;23.124;2023-04-24T08:37:30;92550.20;;;21.54;41.13
10718;BME280;13513;42.700;23.124;2023-04-24T08:40:01;92539.44;;;21.86;40.68
10718;BME280;13513;42.700;23.124;2023-04-24T08:42:33;92539.52;;;23.36;37.36
10718;BME280;13513;42.700;23.124;2023-04-24T08:45:05;92531.63;;;24.05;34.92
10718;BME280;13513;42.700;23.124;2023-04-24T08:47:37;92522.97;;;25.48;34.12
10718;BME280;13513;42.700;23.124;2023-04-24T08:50:09;92524.09;;;26.31;31.42
10718;BME280;13513;42.700;23.124;2023-04-24T08:52:40;92533.91;;;25.67;32.68
10718;BME280;13513;42.700;23.124;2023-04-24T08:55:12;92530.00;;;25.59;32.11
10718;BME280;13513;42.700;23.124;2023-04-24T08:57:44;92525.94;;;27.44;29.36
10718;BME280;13513;42.700;23.124;2023-04-24T09:00:14;92519.41;;;28.87;27.40
10718;BME280;13513;42.700;23.124;2023-04-24T09:02:47;92512.89;;;28.04;28.69
10718;BME280;13513;42.700;23.124;2023-04-24T09:05:18;92520.58;;;28.11;28.12
10718;BME280;13513;42.700;23.124;2023-04-24T09:07:55;92502.34;;;29.32;26.79
10718;BME280;13513;42.700;23.124;2023-04-24T09:10:27;92503.22;;;29.76;26.24
10718;BME280;13513;42.700;23.124;2023-04-24T09:12:59;92497.64;;;30.73;26.47
10718;BME280;13513;42.700;23.124;2023-04-24T09:15:31;92499.77;;;31.52;26.00
10718;BME280;13513;42.700;23.124;2023-04-24T09:18:01;92499.00;;;31.11;24.44
10718;BME280;13513;42.700;23.124;2023-04-24T09:20:33;92503.06;;;31.04;24.01
10718;BME280;13513;42.700;23.124;2023-04-24T09:23:04;92490.84;;;31.62;24.82
10718;BME280;13513;42.700;23.124;2023-04-24T09:25:35;92498.64;;;30.55;23.65
10718;BME280;13513;42.700;23.124;2023-04-24T09:28:06;92504.01;;;27.75;27.33
10718;BME280;13513;42.700;23.124;2023-04-24T09:30:37;92506.02;;;26.44;28.73
10718;BME280;13513;42.700;23.124;2023-04-24T09:33:15;92499.88;;;26.57;28.46
10718;BME280;13513;42.700;23.124;2023-04-24T09:35:51;92495.85;;;25.54;29.57
10718;BME280;13513;42.700;23.124;2023-04-24T09:38:33;92501.83;;;23.96;32.20
10718;BME280;13513;42.700;23.124;2023-04-24T09:41:10;92504.27;;;24.43;31.64
10718;BME280;13513;42.700;23.124;2023-04-24T09:43:40;92486.59;;;25.12;32.26
10718;BME280;13513;42.700;23.124;2023-04-24T09:46:11;92481.18;;;25.55;32.35
10718;BME280;13513;42.700;23.124;2023-04-24T09:48:42;92493.73;;;24.20;29.95
10718;BME280;13513;42.700;23.124;2023-04-24T09:51:13;92492.45;;;22.39;33.83
10718;BME280;13513;42.700;23.124;2023-04-24T09:53:47;92486.22;;;23.21;34.36
10718;BME280;13513;42.700;23.124;2023-04-24T09:56:18;92485.39;;;23.59;31.97
10718;BME280;13513;42.700;23.124;2023-04-24T09:58:49;92470.85;;;22.27;33.21
10718;BME280;13513;42.700;23.124;2023-04-24T10:01:30;92473.27;;;22.20;34.41
10718;BME280;13513;42.700;23.124;2023-04-24T10:04:00;92474.37;;;21.69;34.57
10718;BME280;13513;42.700;23.124;2023-04-24T10:06:37;92470.78;;;21.80;35.28
10718;BME280;13513;42.700;23.124;2023-04-24T10:09:08;92465.28;;;21.68;34.98
10718;BME280;13513;42.700;23.124;2023-04-24T10:11:44;92463.06;;;21.99;34.03
10718;BME280;13513;42.700;23.124;2023-04-24T10:14:19;92460.98;;;22.45;37.23
10718;BME280;13513;42.700;23.124;2023-04-24T10:16:55;92454.38;;;22.75;38.08
10718;BME280;13513;42.700;23.124;2023-04-24T10:19:26;92455.20;;;22.49;33.58
10718;BME280;13513;42.700;23.124;2023-04-24T10:21:57;92446.58;;;22.56;36.71
10718;BME280;13513;42.700;23.124;2023-04-24T10:24:29;92451.31;;;22.44;34.70
10718;BME280;13513;42.700;23.124;2023-04-24T10:26:59;92447.19;;;23.06;35.72
10718;BME280;13513;42.700;23.124;2023-04-24T10:29:31;92438.93;;;23.23;34.61
10718;BME280;13513;42.700;23.124;2023-04-24T10:32:02;92446.08;;;23.19;33.51
10718;BME280;13513;42.700;23.124;2023-04-24T10:34:33;92436.70;;;23.43;36.41
10718;BME280;13513;42.700;23.124;2023-04-24T10:37:06;92431.64;;;23.96;35.91
10718;BME280;13513;42.700;23.124;2023-04-24T10:39:38;92442.09;;;23.55;34.20
10718;BME280;13513;42.700;23.124;2023-04-24T10:42:16;92430.77;;;23.50;33.68
10718;BME280;13513;42.700;23.124;2023-04-24T10:44:50;92436.94;;;22.61;32.92
10718;BME280;13513;42.700;23.124;2023-04-24T10:47:21;92443.58;;;21.87;34.61
10718;BME280;13513;42.700;23.124;2023-04-24T10:49:51;92440.16;;;21.78;35.14
10718;BME280;13513;42.700;23.124;2023-04-24T10:52:26;92441.72;;;21.36;37.72
10718;BME280;13513;42.700;23.124;2023-04-24T10:54:54;92443.59;;;20.89;40.44
10718;BME280;13513;42.700;23.124;2023-04-24T10:57:28;92459.70;;;20.41;39.79
10718;BME280;13513;42.700;23.124;2023-04-24T11:00:14;92469.33;;;19.43;45.89
10718;BME280;13513;42.700;23.124;2023-04-24T11:02:45;92470.17;;;18.38;47.93
10718;BME280;13513;42.700;23.124;2023-04-24T11:05:20;92486.34;;;17.87;55.65
10718;BME280;13513;42.700;23.124;2023-04-24T11:08:15;92480.72;;;18.21;59.53
10718;BME280;13513;42.700;23.124;2023-04-24T11:10:56;92472.61;;;18.48;56.36
10718;BME280;13513;42.700;23.124;2023-04-24T11:13:31;92471.26;;;19.01;65.75
10718;BME280;13513;42.700;23.124;2023-04-24T11:16:15;92469.29;;;19.54;51.16
10718;BME280;13513;42.700;23.124;2023-04-24T11:18:45;92470.69;;;19.80;53.88
10718;BME280;13513;42.700;23.124;2023-04-24T11:21:20;92471.47;;;19.52;52.79
10718;BME280;13513;42.700;23.124;2023-04-24T11:23:51;92458.39;;;18.50;58.43
10718;BME280;13513;42.700;23.124;2023-04-24T11:26:24;92449.42;;;18.66;64.68
10718;BME280;13513;42.700;23.124;2023-04-24T11:28:55;92440.63;;;18.85;59.25
10718;BME280;13513;42.700;23.124;2023-04-24T11:31:37;92379.22;;;18.38;59.21
10718;BME280;13513;42.700;23.124;2023-04-24T11:34:11;92428.50;;;19.18;54.51
10718;BME280;13513;42.700;23.124;2023-04-24T11:36:47;92429.73;;;19.59;52.35
10718;BME280;13513;42.700;23.124;2023-04-24T11:39:18;92424.44;;;19.65;48.97
10718;BME280;13513;42.700;23.124;2023-04-24T11:41:49;92428.00;;;19.63;48.56
10718;BME280;13513;42.700;23.124;2023-04-24T11:44:21;92420.97;;;19.56;51.17
10718;BME280;13513;42.700;23.124;2023-04-24T11:46:52;92423.50;;;19.53;50.31
10718;BME280;13513;42.700;23.124;2023-04-24T11:49:25;92411.53;;;19.68;48.92
10718;BME280;13513;42.700;23.124;2023-04-24T11:52:03;92408.39;;;19.83;47.36
10718;BME280;13513;42.700;23.124;2023-04-24T11:54:30;92414.23;;;19.48;47.91
10718;BME280;13513;42.700;23.124;2023-04-24T11:56:59;92406.30;;;19.54;46.90
10718;BME280;13513;42.700;23.124;2023-04-24T11:59:36;92396.45;;;19.60;48.40
10718;BME280;13513;42.700;23.124;2023-04-24T12:02:05;92404.20;;;19.14;48.00
10718;BME280;13513;42.700;23.124;2023-04-24T12:04:41;92404.61;;;19.30;47.71
10718;BME280;13513;42.700;23.124;2023-04-24T12:07:11;92405.16;;;19.18;47.08
10718;BME280;13513;42.700;23.124;2023-04-24T12:09:44;92404.66;;;19.08;46.92
10718;BME280;13513;42.700;23.124;2023-04-24T12:12:16;92399.81;;;19.46;46.84
10718;BME280;13513;42.700;23.124;2023-04-24T12:14:55;92388.39;;;19.52;46.34
10718;BME280;13513;42.700;23.124;2023-04-24T12:17:31;92382.55;;;18.94;45.36
10718;BME280;13513;42.700;23.124;2023-04-24T12:20:08;92371.30;;;19.59;44.02
10718;BME280;13513;42.700;23.124;2023-04-24T12:22:54;92371.87;;;19.76;44.06
10718;BME280;13513;42.700;23.124;2023-04-24T12:25:31;92372.35;;;19.24;44.45
10718;BME280;13513;42.700;23.124;2023-04-24T12:28:10;92369.95;;;19.14;45.42
10718;BME280;13513;42.700;23.124;2023-04-24T12:30:48;92369.67;;;19.24;45.29
10718;BME280;13513;42.700;23.124;2023-04-24T12:33:22;92360.20;;;19.54;45.68
10718;BME280;13513;42.700;23.124;2023-04-24T12:35:58;92352.55;;;19.93;44.64
10718;BME280;13513;42.700;23.124;2023-04-24T12:38:29;92358.71;;;20.19;44.29
10718;BME280;13513;42.700;23.124;2023-04-24T12:41:13;92355.00;;;19.92;44.20
10718;BME280;13513;42.700;23.124;2023-04-24T12:43:49;92352.23;;;20.20;43.91
10718;BME280;13513;42.700;23.124;2023-04-24T12:46:10;92336.48;;;19.76;45.62
10718;BME280;13513;42.700;23.124;2023-04-24T12:48:42;92321.38;;;19.26;48.66
10718;BME280;13513;42.700;23.124;2023-04-24T12:51:12;92330.67;;;19.29;48.46
10718;BME280;13513;42.700;23.124;2023-04-24T12:53:42;92327.23;;;19.80;45.49
10718;BME280;13513;42.700;23.124;2023-04-24T12:56:14;92321.97;;;19.86;44.89
10718;BME280;13513;42.700;23.124;2023-04-24T12:58:46;92322.67;;;20.14;44.40
10718;BME280;13513;42.700;23.124;2023-04-24T13:01:16;92314.55;;;19.91;44.33
10718;BME280;13513;42.700;23.124;2023-04-24T13:03:47;92313.86;;;20.28;44.20
10718;BME280;13513;42.700;23.124;2023-04-24T13:06:18;92300.75;;;20.73;43.83
10718;BME280;13513;42.700;23.124;2023-04-24T13:08:49;92294.28;;;21.11;42.01
10718;BME280;13513;42.700;23.124;2023-04-24T13:11:20;92291.27;;;21.48;44.08
10718;BME280;13513;42.700;23.124;2023-04-24T13:13:52;92280.35;;;21.59;44.96